Time;durP1;ratioP1;P1;durP2;ratioP2;P2;SDS_P1;SDS_P2;PMS_P1;PMS_P2;Temp;Humidity;BMP_temperature;BMP_pressure;BME280_temperature;BME280_humidity;BME280_pressure;Samples;Min_cycle;Max_cycle;Signal;HPM_P1;HPM_P2
2024/01/21 00:01:39;;;;;;;22.20;10.85;;;;;;;-2.54;85.61;101559.81;10300693;22;20266;-89
2024/01/21 00:05:40;;;;;;;28.65;10.98;;;;;;;-2.45;85.81;101541.97;10324946;22;20008;-89
2024/01/21 00:09:41;;;;;;;22.60;11.45;;;;;;;-2.47;85.72;101521.75;10328635;22;20024;-89
2024/01/21 00:13:41;;;;;;;25.52;11.13;;;;;;;-2.43;85.43;101515.47;10302598;22;20370;-89
2024/01/21 00:17:42;;;;;;;26.25;10.75;;;;;;;-2.39;85.71;101512.72;10312517;23;20024;-90
2024/01/21 00:21:42;;;;;;;26.63;12.23;;;;;;;-2.28;85.52;101515.13;10284106;23;20024;-90
2024/01/21 00:25:43;;;;;;;26.23;11.82;;;;;;;-2.26;85.40;101502.69;10284922;23;20024;-89
2024/01/21 00:29:43;;;;;;;19.92;10.25;;;;;;;-2.24;85.29;101514.13;10262233;23;20082;-90
2024/01/21 00:33:44;;;;;;;23.30;10.95;;;;;;;-2.26;84.33;101497.41;10284364;23;20008;-89
2024/01/21 00:37:44;;;;;;;22.95;9.60;;;;;;;-2.10;84.04;101509.38;10303513;22;20000;-90
2024/01/21 00:41:45;;;;;;;25.13;10.07;;;;;;;-2.15;83.66;101487.44;10304604;22;20004;-90
2024/01/21 00:45:45;;;;;;;22.88;9.90;;;;;;;-2.07;83.56;101473.06;10329104;22;20019;-89
2024/01/21 00:49:46;;;;;;;22.33;9.05;;;;;;;-2.00;82.93;101463.22;10304699;22;20296;-89
2024/01/21 00:53:46;;;;;;;17.83;8.70;;;;;;;-2.10;82.20;101424.63;10301971;22;20004;-89
2024/01/21 00:57:47;;;;;;;17.92;7.75;;;;;;;-1.99;81.71;101417.25;10325067;22;20021;-89
2024/01/21 01:01:47;;;;;;;17.33;7.68;;;;;;;-1.88;80.91;101415.19;10298521;22;20093;-88
2024/01/21 01:05:48;;;;;;;17.33;7.55;;;;;;;-1.76;80.96;101425.47;10322972;22;20038;-88
2024/01/21 01:09:48;;;;;;;18.23;7.88;;;;;;;-1.97;81.02;101404.84;10258840;23;20024;-88
2024/01/21 01:13:49;;;;;;;15.80;7.13;;;;;;;-1.85;80.96;101388.63;10259569;23;20046;-88
2024/01/21 01:17:51;;;;;;;17.33;7.53;;;;;;;-1.72;80.70;101407.69;10259967;23;20031;-89
2024/01/21 01:21:51;;;;;;;15.52;6.63;;;;;;;-1.51;80.31;101404.44;10308774;23;20024;-88
2024/01/21 01:25:52;;;;;;;15.10;7.38;;;;;;;-1.44;80.65;101396.28;10285255;23;20020;-88
2024/01/21 01:29:52;;;;;;;19.13;8.05;;;;;;;-1.53;81.07;101380.63;10308438;23;20020;-88
2024/01/21 01:33:53;;;;;;;13.93;7.20;;;;;;;-1.40;81.49;101400.56;10258662;23;20360;-88
2024/01/21 01:37:53;;;;;;;14.95;7.22;;;;;;;-1.33;81.42;101390.66;10256375;23;20020;-88
2024/01/21 01:41:54;;;;;;;16.58;7.07;;;;;;;-1.40;81.20;101382.00;10283673;23;20066;-87
2024/01/21 01:45:54;;;;;;;15.63;6.60;;;;;;;-1.19;80.60;101384.03;10281966;23;20016;-89
2024/01/21 01:49:56;;;;;;;13.63;6.50;;;;;;;-1.30;80.74;101370.22;10284433;22;20464;-89
2024/01/21 01:53:56;;;;;;;13.13;6.72;;;;;;;-1.27;80.77;101356.88;10257962;23;20020;-89
2024/01/21 01:57:57;;;;;;;15.85;7.20;;;;;;;-1.57;81.18;101327.75;10259069;23;20027;-91
2024/01/21 02:01:58;;;;;;;12.30;7.53;;;;;;;-1.64;81.03;101308.53;10282995;23;20364;-90
2024/01/21 02:05:58;;;;;;;13.20;7.03;;;;;;;-1.24;80.69;101370.06;10284335;23;20261;-91
2024/01/21 02:09:59;;;;;;;14.02;6.63;;;;;;;-1.21;80.24;101359.34;10258498;23;20016;-90
2024/01/21 02:14:00;;;;;;;13.52;6.15;;;;;;;-1.14;79.21;101352.06;10282864;22;20040;-90
2024/01/21 02:18:01;;;;;;;14.85;6.10;;;;;;;-0.88;77.71;101323.78;10258879;23;20020;-91
2024/01/21 02:22:04;;;;;;;13.15;6.43;;;;;;;-0.82;77.19;101328.88;10257551;23;22460;-90
2024/01/21 02:26:05;;;;;;;10.82;6.50;;;;;;;-0.81;76.17;101303.22;10267735;23;20004;-89
2024/01/21 02:30:06;;;;;;;11.63;5.63;;;;;;;-0.58;75.58;101322.78;10262506;23;20012;-89
2024/01/21 02:34:08;;;;;;;13.18;6.60;;;;;;;-0.50;74.77;101339.34;10256972;23;20280;-89
2024/01/21 02:38:08;;;;;;;14.45;6.60;;;;;;;-0.61;74.89;101306.09;10281822;22;20375;-89
2024/01/21 02:42:09;;;;;;;13.43;6.90;;;;;;;-0.54;74.30;101308.50;10261405;23;20087;-89
2024/01/21 02:46:09;;;;;;;14.52;6.65;;;;;;;-0.47;74.03;101306.50;10259430;23;20008;-89
2024/01/21 02:50:10;;;;;;;13.52;6.85;;;;;;;-0.53;73.54;101294.31;10260472;23;20020;-89
2024/01/21 02:54:10;;;;;;;13.43;6.90;;;;;;;-0.40;72.77;101282.31;10258703;23;20059;-88
2024/01/21 02:58:11;;;;;;;11.13;5.75;;;;;;;-0.23;71.89;101289.69;10202752;23;20354;-91
2024/01/21 03:02:12;;;;;;;11.48;5.70;;;;;;;-0.23;71.01;101261.38;10265057;23;20364;-91
2024/01/21 03:06:12;;;;;;;12.75;6.00;;;;;;;-0.26;71.40;101265.91;10260302;23;20013;-90
2024/01/21 03:10:13;;;;;;;11.57;6.18;;;;;;;-0.25;70.56;101268.50;10240928;23;20024;-90
2024/01/21 03:14:16;;;;;;;11.38;5.55;;;;;;;-0.02;69.44;101287.16;10208311;22;20032;-90
2024/01/21 03:18:16;;;;;;;13.60;5.75;;;;;;;-0.10;69.77;101286.56;10210994;23;20024;-91
2024/01/21 03:22:17;;;;;;;11.10;5.53;;;;;;;-0.13;70.36;101284.00;10246674;22;20079;-91
2024/01/21 03:26:17;;;;;;;11.07;6.25;;;;;;;-0.23;69.61;101264.03;10248193;23;20021;-91
2024/01/21 03:30:18;;;;;;;11.50;5.75;;;;;;;-0.22;70.13;101268.41;10234492;23;20103;-91
2024/01/21 03:34:18;;;;;;;8.10;4.95;;;;;;;-0.14;70.38;101261.03;10247697;23;20040;-90
2024/01/21 03:38:19;;;;;;;14.63;6.82;;;;;;;-0.05;69.61;101244.75;10208179;23;20027;-90
2024/01/21 03:42:19;;;;;;;13.48;6.75;;;;;;;-0.15;69.61;101227.41;10235489;23;20017;-90
2024/01/21 03:46:20;;;;;;;12.02;6.32;;;;;;;0.11;68.60;101246.81;10208679;23;20016;-90
2024/01/21 03:50:20;;;;;;;12.00;6.43;;;;;;;-0.07;69.13;101235.97;10210595;23;20013;-88
2024/01/21 03:54:21;;;;;;;19.15;7.00;;;;;;;0.06;69.04;101240.81;10208666;23;20027;-88
2024/01/21 03:58:21;;;;;;;13.20;5.88;;;;;;;0.06;69.16;101216.91;10235150;23;20062;-88
2024/01/21 04:02:23;;;;;;;13.20;6.80;;;;;;;0.00;69.52;101210.88;10179501;23;20017;-90
2024/01/21 04:06:24;;;;;;;9.77;5.35;;;;;;;-0.08;69.28;101202.34;10195395;23;20017;-89
2024/01/21 04:10:25;;;;;;;12.02;5.70;;;;;;;0.00;69.36;101194.94;10206433;23;20024;-88
2024/01/21 04:14:26;;;;;;;9.73;5.40;;;;;;;0.14;69.18;101196.19;10230712;23;20013;-88
2024/01/21 04:18:26;;;;;;;11.20;5.07;;;;;;;0.03;68.96;101155.91;10237980;23;20103;-88
2024/01/21 04:22:27;;;;;;;11.63;5.85;;;;;;;0.53;67.92;101176.03;10257881;23;20043;-88
2024/01/21 04:26:28;;;;;;;10.85;5.40;;;;;;;0.66;66.98;101182.56;10218609;23;20021;-88
2024/01/21 04:30:28;;;;;;;14.55;5.75;;;;;;;0.65;68.14;101194.16;10211210;23;20031;-88
2024/01/21 04:34:29;;;;;;;10.70;5.88;;;;;;;0.55;69.13;101195.47;10252651;23;20385;-89
2024/01/21 04:38:29;;;;;;;10.63;5.35;;;;;;;0.41;70.28;101171.19;10198301;23;20022;-89
2024/01/21 04:42:30;;;;;;;11.13;5.60;;;;;;;0.31;70.49;101172.50;10256904;23;20012;-88
2024/01/21 04:46:30;;;;;;;12.77;6.20;;;;;;;0.28;71.41;101199.19;10209981;23;20171;-88
2024/01/21 04:50:31;;;;;;;9.55;5.50;;;;;;;0.37;72.30;101185.56;10209428;23;20012;-88
2024/01/21 04:54:31;;;;;;;8.52;3.97;;;;;;;1.13;70.36;101154.88;10231964;23;20016;-88
2024/01/21 04:58:33;;;;;;;7.13;3.50;;;;;;;2.57;64.62;101141.88;10233222;23;20035;-89
2024/01/21 05:02:33;;;;;;;5.80;3.45;;;;;;;3.26;62.30;101144.53;10233307;23;20016;-88
2024/01/21 05:06:34;;;;;;;6.75;3.40;;;;;;;3.44;61.64;101132.88;10207516;23;20018;-89
2024/01/21 05:10:36;;;;;;;5.68;3.78;;;;;;;3.61;61.17;101162.28;10233598;23;20015;-89
2024/01/21 05:14:38;;;;;;;5.97;3.00;;;;;;;3.54;60.73;101136.78;10231493;23;20071;-90
2024/01/21 05:18:39;;;;;;;6.80;3.65;;;;;;;3.42;61.18;101110.72;10234770;22;20017;-90
2024/01/21 05:22:39;;;;;;;7.15;3.90;;;;;;;3.46;61.14;101131.00;10232692;23;20100;-91
2024/01/21 05:26:44;;;;;;;5.55;3.55;;;;;;;3.54;60.92;101134.13;10209087;23;20079;-90
2024/01/21 05:30:44;;;;;;;7.53;4.25;;;;;;;3.51;61.70;101144.97;10242215;23;20016;-90
2024/01/21 05:34:45;;;;;;;8.05;4.28;;;;;;;3.38;62.34;101141.22;10283400;23;20102;-90
2024/01/21 05:38:46;;;;;;;10.07;4.25;;;;;;;3.34;62.50;101158.38;10256640;23;20031;-89
2024/01/21 05:42:46;;;;;;;5.88;3.78;;;;;;;3.30;62.71;101150.59;10284024;22;20091;-90
2024/01/21 05:46:47;;;;;;;7.75;4.93;;;;;;;3.36;62.45;101151.13;10257635;23;20027;-89
2024/01/21 05:50:47;;;;;;;10.63;4.95;;;;;;;3.10;63.09;101151.63;10282558;22;20805;-89
2024/01/21 05:54:49;;;;;;;9.02;5.13;;;;;;;3.17;63.33;101147.69;10258586;23;20099;-90
2024/01/21 05:58:49;;;;;;;10.75;6.00;;;;;;;2.99;63.34;101103.22;10257282;22;20017;-90
2024/01/21 06:02:51;;;;;;;11.10;5.40;;;;;;;3.11;63.79;101123.94;10283723;22;20073;-89
2024/01/21 06:06:52;;;;;;;11.63;5.78;;;;;;;2.91;64.23;101089.41;10306755;23;20020;-89
2024/01/21 06:10:52;;;;;;;11.80;5.65;;;;;;;3.13;63.85;101123.88;10259139;23;20027;-89
2024/01/21 06:14:53;;;;;;;8.43;5.45;;;;;;;3.09;63.72;101112.50;10282426;23;20027;-89
2024/01/21 06:18:53;;;;;;;10.43;5.50;;;;;;;3.05;64.13;101118.91;10287080;23;20081;-91
2024/01/21 06:22:54;;;;;;;12.20;6.18;;;;;;;3.09;64.70;101116.97;10260612;23;20024;-90
2024/01/21 06:26:54;;;;;;;9.40;5.57;;;;;;;2.91;65.63;101108.09;10294973;22;20056;-90
2024/01/21 06:30:55;;;;;;;10.35;5.20;;;;;;;3.16;64.37;101095.19;10307201;22;20004;-89
2024/01/21 06:34:55;;;;;;;9.50;5.38;;;;;;;3.40;63.30;101128.66;10306650;22;20071;-88
2024/01/21 06:38:56;;;;;;;10.50;5.53;;;;;;;3.19;64.53;101105.72;10308768;22;20004;-89
2024/01/21 06:42:56;;;;;;;13.85;6.18;;;;;;;3.03;64.76;101061.19;10326757;22;20011;-89
2024/01/21 06:46:56;;;;;;;14.02;6.38;;;;;;;3.18;65.38;101081.78;10269072;22;20019;-88
2024/01/21 06:50:57;;;;;;;14.88;6.85;;;;;;;3.23;65.44;101074.38;10247609;22;20024;-90
2024/01/21 06:54:57;;;;;;;13.75;6.57;;;;;;;3.24;64.74;101060.94;10220213;22;20324;-90
2024/01/21 06:58:58;;;;;;;16.05;7.07;;;;;;;3.35;63.73;101074.59;10217165;23;20033;-91
2024/01/21 07:02:58;;;;;;;14.07;6.63;;;;;;;3.45;62.96;101099.03;10241412;23;20021;-91
2024/01/21 07:06:59;;;;;;;15.40;7.13;;;;;;;3.55;62.57;101114.50;10228234;23;20027;-89
2024/01/21 07:10:59;;;;;;;15.52;7.65;;;;;;;3.39;63.03;101140.28;10287813;23;20020;-89
2024/01/21 07:15:00;;;;;;;12.57;6.60;;;;;;;3.36;62.78;101151.13;10290120;22;20015;-90
2024/01/21 07:19:00;;;;;;;12.98;6.75;;;;;;;3.32;62.88;101138.88;10283577;23;20509;-90
2024/01/21 07:23:02;;;;;;;15.95;7.68;;;;;;;3.21;63.21;101141.25;10266379;23;20036;-91
2024/01/21 07:27:03;;;;;;;16.63;8.00;;;;;;;3.10;64.34;101191.69;10289747;22;20028;-90
2024/01/21 07:31:03;;;;;;;14.10;7.25;;;;;;;3.07;63.45;101191.84;10306411;22;20020;-90
2024/01/21 07:35:04;;;;;;;14.60;7.50;;;;;;;3.11;63.41;101204.09;10327404;22;20022;-90
2024/01/21 07:39:05;;;;;;;15.82;7.07;;;;;;;3.15;62.85;101227.06;10327115;22;20023;-90
2024/01/21 07:43:07;;;;;;;15.93;7.78;;;;;;;3.12;62.16;101210.31;10322020;23;20016;-90
2024/01/21 07:47:09;;;;;;;14.13;7.20;;;;;;;3.26;61.29;101202.47;10321933;22;20084;-91
2024/01/21 07:51:10;;;;;;;15.93;6.95;;;;;;;3.41;60.53;101207.88;10295535;22;20016;-90
2024/01/21 07:55:10;;;;;;;12.48;6.68;;;;;;;3.56;58.88;101207.09;10306684;23;20035;-90
2024/01/21 07:59:12;;;;;;;11.50;6.28;;;;;;;3.84;57.74;101219.84;10318519;23;20100;-91
2024/01/21 08:03:13;;;;;;;15.85;6.88;;;;;;;3.86;57.88;101210.81;10265621;23;20016;-88
2024/01/21 08:07:14;;;;;;;13.18;7.40;;;;;;;3.87;57.01;101201.84;10245873;23;20032;-91
2024/01/21 08:11:16;;;;;;;16.33;7.70;;;;;;;4.01;57.34;101209.13;10215073;22;20012;-92
2024/01/21 08:15:16;;;;;;;19.08;8.65;;;;;;;3.74;57.59;101184.75;10211797;23;20071;-91
2024/01/21 08:19:19;;;;;;;17.83;8.40;;;;;;;3.60;58.50;101214.00;10256938;23;20016;-91
2024/01/21 08:23:21;;;;;;;32.53;12.13;;;;;;;3.43;58.82;101179.28;10215208;23;20020;-92
2024/01/21 08:27:22;;;;;;;14.30;7.97;;;;;;;3.76;57.57;101177.47;10237152;23;20080;-91
2024/01/21 08:31:22;;;;;;;15.13;7.13;;;;;;;3.86;57.01;101154.66;10211526;23;20031;-92
2024/01/21 08:35:23;;;;;;;13.98;6.95;;;;;;;4.06;57.52;101146.41;10216937;23;20013;-90
2024/01/21 08:39:24;;;;;;;11.70;6.55;;;;;;;3.89;57.61;101130.44;10230267;23;20012;-91
2024/01/21 08:43:25;;;;;;;12.25;6.57;;;;;;;3.68;58.43;101155.66;10254363;22;20143;-91
2024/01/21 08:47:25;;;;;;;10.10;6.50;;;;;;;3.61;58.36;101159.59;10213856;23;20004;-92
2024/01/21 08:51:26;;;;;;;13.73;6.25;;;;;;;3.88;57.46;101171.47;10213299;23;20501;-91
2024/01/21 08:55:26;;;;;;;12.75;6.05;;;;;;;3.87;57.02;101166.22;10248356;22;20567;-91
2024/01/21 08:59:27;;;;;;;14.10;7.05;;;;;;;3.73;58.12;101215.06;10265361;22;20031;-91
2024/01/21 09:03:28;;;;;;;12.77;7.18;;;;;;;3.62;58.41;101237.97;10213235;23;20362;-91
2024/01/21 09:07:29;;;;;;;13.23;7.00;;;;;;;3.83;58.62;101236.84;10209194;23;20088;-91
2024/01/21 09:11:30;;;;;;;16.98;7.25;;;;;;;3.79;58.60;101213.91;10213194;23;20532;-91
2024/01/21 09:15:30;;;;;;;12.95;7.32;;;;;;;3.64;59.00;101199.53;10248921;23;20361;-91
2024/01/21 09:19:31;;;;;;;16.42;8.25;;;;;;;3.69;58.86;101197.47;10245457;23;20167;-91
2024/01/21 09:23:33;;;;;;;13.82;7.32;;;;;;;4.11;58.16;101258.53;10216915;23;20013;-92
2024/01/21 09:27:33;;;;;;;17.05;7.93;;;;;;;4.22;58.31;101228.50;10213104;23;20043;-92
2024/01/21 09:31:35;;;;;;;15.60;7.88;;;;;;;4.11;58.70;101231.75;10260454;23;20020;-92
2024/01/21 09:35:35;;;;;;;16.50;7.05;;;;;;;4.16;58.88;101221.69;10213523;23;20025;-91
2024/01/21 09:39:37;;;;;;;13.90;6.90;;;;;;;4.24;58.52;101208.75;10212700;22;20011;-91
2024/01/21 09:43:41;;;;;;;12.10;6.50;;;;;;;4.38;58.59;101213.34;10230943;23;20021;-91
2024/01/21 09:47:43;;;;;;;14.25;6.95;;;;;;;4.86;58.37;101226.66;10215463;23;20096;-91
2024/01/21 09:51:47;;;;;;;15.35;7.13;;;;;;;6.70;54.61;101229.63;10236809;23;20060;-92
2024/01/21 09:55:55;;;;;;;12.18;6.65;;;;;;;5.72;55.84;101219.72;10256001;22;20027;-92
2024/01/21 09:59:56;;;;;;;14.15;7.88;;;;;;;5.44;56.28;101230.38;10255014;23;20020;-93
2024/01/21 10:03:57;;;;;;;15.32;7.40;;;;;;;5.08;56.75;101195.88;10212992;23;20037;-93
2024/01/21 10:07:57;;;;;;;15.90;7.55;;;;;;;5.03;57.79;101218.53;10270874;23;20027;-93
2024/01/21 10:11:59;;;;;;;16.10;7.90;;;;;;;4.79;59.21;101231.50;10246566;23;20074;-93
2024/01/21 10:16:00;;;;;;;16.52;8.60;;;;;;;4.44;61.56;101245.13;10233101;23;20016;-92
2024/01/21 10:20:01;;;;;;;17.40;8.63;;;;;;;4.32;62.74;101235.09;10209059;23;20022;-92
2024/01/21 10:24:01;;;;;;;15.75;7.72;;;;;;;4.38;64.31;101234.75;10220850;23;20052;-92
2024/01/21 10:28:02;;;;;;;16.65;8.57;;;;;;;4.29;65.51;101241.47;10212223;23;20016;-92
2024/01/21 10:32:03;;;;;;;18.55;8.48;;;;;;;4.31;65.24;101233.38;10211481;23;20025;-92
2024/01/21 10:36:04;;;;;;;18.23;8.35;;;;;;;4.30;66.95;101220.94;10213460;23;20611;-91
2024/01/21 10:40:07;;;;;;;15.77;7.13;;;;;;;4.42;66.78;101220.28;10213066;23;20020;-91
2024/01/21 10:44:08;;;;;;;17.50;9.05;;;;;;;4.48;67.66;101226.13;10211351;23;20013;-92
2024/01/21 10:48:12;;;;;;;14.48;8.73;;;;;;;4.61;68.44;101250.44;10208857;23;20091;-91
2024/01/21 10:52:14;;;;;;;17.47;8.50;;;;;;;4.60;68.83;101229.97;10219580;23;20071;-91
2024/01/21 10:56:15;;;;;;;15.45;8.40;;;;;;;4.63;70.99;101219.94;10233157;23;20248;-91
2024/01/21 11:00:16;;;;;;;10.43;5.88;;;;;;;5.27;72.65;101227.81;10211994;23;20013;-92
2024/01/21 11:04:17;;;;;;;10.43;6.05;;;;;;;5.66;71.87;101241.53;10176652;23;20044;-91
2024/01/21 11:08:21;;;;;;;14.80;6.10;;;;;;;5.64;71.73;101221.97;10185569;23;20016;-91
2024/01/21 11:12:22;;;;;;;8.68;5.82;;;;;;;5.76;72.11;101226.59;10208539;23;20028;-91
2024/01/21 20:01:38;;;;;;;8.02;3.33;;;;;;;5.53;100.00;100903.53;8339001;27;20899;-56
2024/01/21 20:05:39;;;;;;;8.65;2.95;;;;;;;5.47;100.00;100893.22;8335338;28;20094;-56
2024/01/21 20:09:39;;;;;;;6.18;3.83;;;;;;;5.67;100.00;100895.44;8327672;28;20033;-56
2024/01/21 20:13:40;;;;;;;7.63;3.20;;;;;;;5.98;100.00;100905.06;8342191;28;20057;-56
2024/01/21 20:17:42;;;;;;;6.40;3.00;;;;;;;6.04;100.00;100889.38;8329123;28;20033;-56
2024/01/21 20:21:42;;;;;;;6.90;3.30;;;;;;;5.98;100.00;100888.97;8325876;28;20037;-56
2024/01/21 20:25:43;;;;;;;5.43;2.65;;;;;;;5.87;100.00;100884.31;8325520;28;20029;-57
2024/01/21 20:29:44;;;;;;;9.27;2.67;;;;;;;5.64;100.00;100884.03;8342301;28;20048;-56
2024/01/21 20:33:44;;;;;;;5.97;2.58;;;;;;;5.62;100.00;100886.00;8348442;28;20037;-56
2024/01/21 20:37:45;;;;;;;7.65;3.05;;;;;;;5.87;100.00;100867.34;8335002;28;20033;-57
2024/01/21 20:41:45;;;;;;;7.57;2.75;;;;;;;5.95;100.00;100846.22;8339707;28;20064;-56
2024/01/21 20:45:46;;;;;;;5.10;2.92;;;;;;;5.81;100.00;100843.56;8335488;28;20041;-56
2024/01/21 20:49:46;;;;;;;14.82;5.43;;;;;;;5.62;100.00;100829.66;8334310;28;20049;-56
2024/01/21 20:53:49;;;;;;;9.55;3.15;;;;;;;5.40;100.00;100821.34;8325366;28;20257;-58
2024/01/21 20:57:49;;;;;;;20.65;8.75;;;;;;;5.23;100.00;100802.78;8335170;28;20117;-57
2024/01/21 21:01:52;;;;;;;8.68;4.70;;;;;;;5.10;100.00;100797.38;8340312;28;20061;-56
2024/01/21 21:05:53;;;;;;;6.28;3.53;;;;;;;4.93;100.00;100810.13;8348227;28;20479;-57
2024/01/21 21:09:54;;;;;;;11.60;3.85;;;;;;;4.97;100.00;100806.31;8333071;28;20045;-56
2024/01/21 21:13:58;;;;;;;9.77;3.20;;;;;;;5.35;100.00;100812.72;8311649;28;20045;-56
2024/01/21 21:17:58;;;;;;;4.40;2.00;;;;;;;5.88;100.00;100778.69;8311843;28;20042;-58
2024/01/21 21:21:59;;;;;;;3.95;2.08;;;;;;;6.55;100.00;100744.44;8307272;28;20732;-56
2024/01/21 21:25:59;;;;;;;4.88;1.83;;;;;;;6.81;100.00;100741.63;8306308;28;20133;-56
2024/01/21 21:30:00;;;;;;;3.45;1.55;;;;;;;7.23;100.00;100729.53;8320984;28;20438;-57
2024/01/21 21:34:00;;;;;;;4.88;1.73;;;;;;;7.51;100.00;100708.50;8312877;28;20053;-56
2024/01/21 21:38:00;;;;;;;3.03;1.30;;;;;;;7.55;100.00;100696.53;8309985;28;20509;-56
2024/01/21 21:42:01;;;;;;;5.28;1.85;;;;;;;7.87;100.00;100672.53;8315328;28;20451;-56
2024/01/21 21:46:02;;;;;;;6.60;1.20;;;;;;;8.02;97.60;100666.78;8311733;28;20412;-55
2024/01/21 21:50:03;;;;;;;3.22;1.20;;;;;;;7.93;97.14;100697.13;8307703;28;21447;-56
2024/01/21 21:54:04;;;;;;;2.72;1.20;;;;;;;7.52;97.75;100710.22;8304818;28;20049;-56
2024/01/21 21:58:05;;;;;;;3.33;1.20;;;;;;;7.52;99.09;100698.59;8316510;28;20045;-56
2024/01/21 22:02:05;;;;;;;3.33;1.20;;;;;;;7.50;99.51;100692.47;8323154;28;20414;-56
2024/01/21 22:06:07;;;;;;;7.57;2.38;;;;;;;7.38;99.94;100669.22;8308710;28;20037;-56
2024/01/21 22:10:07;;;;;;;3.08;1.25;;;;;;;7.57;99.87;100670.38;8301261;28;20037;-56
2024/01/21 22:14:08;;;;;;;3.30;1.30;;;;;;;7.55;98.96;100653.50;8312414;28;20231;-57
2024/01/21 22:18:10;;;;;;;3.08;1.10;;;;;;;7.69;99.19;100633.59;8312407;28;20037;-56
2024/01/21 22:22:11;;;;;;;3.88;1.27;;;;;;;7.84;99.09;100627.03;8320185;28;20388;-57
2024/01/21 22:26:12;;;;;;;3.08;1.40;;;;;;;7.86;99.21;100631.31;8315971;28;20116;-57
2024/01/21 22:30:13;;;;;;;3.55;1.58;;;;;;;7.47;99.82;100661.28;8317013;28;20035;-57
2024/01/21 22:34:13;;;;;;;5.43;1.20;;;;;;;7.23;100.00;100659.63;8314479;28;20373;-58
2024/01/21 22:38:13;;;;;;;2.80;1.45;;;;;;;7.32;100.00;100657.09;8297749;28;20353;-57
2024/01/21 22:42:14;;;;;;;5.38;1.40;;;;;;;7.54;100.00;100646.38;8320041;28;20072;-57
2024/01/21 22:46:15;;;;;;;3.00;1.48;;;;;;;7.73;100.00;100608.16;8322384;28;20442;-57
2024/01/21 22:50:15;;;;;;;1.70;1.35;;;;;;;7.95;100.00;100576.75;8321459;28;20365;-57
2024/01/21 22:54:17;;;;;;;4.78;1.27;;;;;;;8.24;99.73;100549.31;8321962;28;20049;-57
2024/01/21 22:58:17;;;;;;;3.30;1.38;;;;;;;8.15;97.49;100533.88;8319697;28;20407;-57
2024/01/21 23:02:17;;;;;;;6.78;1.20;;;;;;;7.91;97.61;100521.44;8317638;28;20063;-56
2024/01/21 23:06:18;;;;;;;5.03;1.30;;;;;;;8.07;98.48;100489.59;8306389;28;20041;-57
2024/01/21 23:10:18;;;;;;;2.85;1.20;;;;;;;8.06;96.05;100487.88;8308996;28;20129;-56
2024/01/21 23:14:19;;;;;;;3.67;1.23;;;;;;;7.80;97.26;100493.66;8306026;28;20171;-55
2024/01/21 23:18:21;;;;;;;2.10;1.23;;;;;;;7.80;99.06;100542.09;8304992;28;20040;-56
2024/01/21 23:22:22;;;;;;;4.60;1.20;;;;;;;7.83;100.00;100499.66;8303458;28;20038;-55
2024/01/21 23:26:22;;;;;;;3.22;1.50;;;;;;;8.25;99.19;100497.16;8309256;28;20095;-56
2024/01/21 23:30:24;;;;;;;2.25;1.27;;;;;;;8.20;98.69;100488.59;8303213;28;20041;-56
2024/01/21 23:34:24;;;;;;;2.67;1.55;;;;;;;8.02;99.03;100502.56;8302220;28;20573;-56
2024/01/21 23:38:25;;;;;;;4.90;1.30;;;;;;;8.14;99.78;100489.09;8306026;28;20496;-55
2024/01/21 23:42:25;;;;;;;2.92;1.35;;;;;;;8.21;98.68;100468.75;8310632;28;20128;-55
2024/01/21 23:46:26;;;;;;;4.90;1.20;;;;;;;8.33;98.77;100459.69;8306325;28;20042;-56
2024/01/21 23:50:26;;;;;;;3.00;1.30;;;;;;;8.47;98.01;100440.53;8306360;28;20377;-56
2024/01/21 23:54:26;;;;;;;3.83;1.20;;;;;;;8.32;97.34;100439.16;8305882;28;20069;-58
2024/01/21 23:58:27;;;;;;;5.35;1.25;;;;;;;8.41;97.21;100422.19;8304744;28;20044;-56
